sensor_id;sensor_type;location;lat;lon;timestamp;pressure;altitude;pressure_sealevel;temperature;humidity
58072;BME280;60383;46.626;18.866;2024-03-02T00:00:50;99743.63;;;9.58;87.24
58072;BME280;60383;46.626;18.866;2024-03-02T00:03:16;99742.09;;;9.56;87.22
58072;BME280;60383;46.626;18.866;2024-03-02T00:05:41;99750.72;;;9.26;87.80
58072;BME280;60383;46.626;18.866;2024-03-02T00:08:07;99742.97;;;9.56;86.65
58072;BME280;60383;46.626;18.866;2024-03-02T00:10:37;99741.16;;;9.31;87.01
58072;BME280;60383;46.626;18.866;2024-03-02T00:13:06;99736.06;;;9.36;87.26
58072;BME280;60383;46.626;18.866;2024-03-02T00:15:47;99741.16;;;9.31;87.74
58072;BME280;60383;46.626;18.866;2024-03-02T00:18:19;99739.06;;;9.08;88.61
58072;BME280;60383;46.626;18.866;2024-03-02T00:20:45;99726.09;;;9.18;88.29
58072;BME280;60383;46.626;18.866;2024-03-02T00:23:14;99731.25;;;9.21;88.21
58072;BME280;60383;46.626;18.866;2024-03-02T00:25:42;99733.09;;;9.13;88.14
58072;BME280;60383;46.626;18.866;2024-03-02T00:33:37;99724.59;;;9.24;87.45
58072;BME280;60383;46.626;18.866;2024-03-02T00:36:04;99718.25;;;9.23;88.04
58072;BME280;60383;46.626;18.866;2024-03-02T00:38:30;99726.34;;;9.33;87.36
58072;BME280;60383;46.626;18.866;2024-03-02T00:40:58;99719.16;;;9.32;86.89
58072;BME280;60383;46.626;18.866;2024-03-02T00:45:49;99721.88;;;9.40;86.65
58072;BME280;60383;46.626;18.866;2024-03-02T00:48:15;99721.88;;;9.40;86.85
58072;BME280;60383;46.626;18.866;2024-03-02T00:50:42;99717.63;;;9.46;86.49
58072;BME280;60383;46.626;18.866;2024-03-02T00:53:10;99719.53;;;9.46;85.93
58072;BME280;60383;46.626;18.866;2024-03-02T00:55:37;99711.81;;;9.41;86.37
58072;BME280;60383;46.626;18.866;2024-03-02T00:58:03;99722.09;;;9.47;86.58
58072;BME280;60383;46.626;18.866;2024-03-02T01:00:28;99719.50;;;9.37;86.73
58072;BME280;60383;46.626;18.866;2024-03-02T01:02:54;99720.19;;;9.39;88.32
58072;BME280;60383;46.626;18.866;2024-03-02T01:05:20;99718.09;;;9.25;90.75
58072;BME280;60383;46.626;18.866;2024-03-02T01:07:45;99715.91;;;9.29;91.96
58072;BME280;60383;46.626;18.866;2024-03-02T01:10:11;99712.16;;;9.46;90.93
58072;BME280;60383;46.626;18.866;2024-03-02T01:12:36;99722.25;;;9.46;90.54
58072;BME280;60383;46.626;18.866;2024-03-02T01:15:02;99727.22;;;9.50;90.87
58072;BME280;60383;46.626;18.866;2024-03-02T01:17:31;99725.31;;;9.42;91.35
58072;BME280;60383;46.626;18.866;2024-03-02T01:19:56;99733.16;;;9.37;92.98
58072;BME280;60383;46.626;18.866;2024-03-02T01:22:23;99729.94;;;9.42;93.65
58072;BME280;60383;46.626;18.866;2024-03-02T01:24:50;99729.25;;;9.40;92.87
58072;BME280;60383;46.626;18.866;2024-03-02T01:27:16;99740.88;;;9.58;89.41
58072;BME280;60383;46.626;18.866;2024-03-02T01:29:41;99742.97;;;9.56;88.65
58072;BME280;60383;46.626;18.866;2024-03-02T01:32:07;99744.97;;;9.46;88.58
58072;BME280;60383;46.626;18.866;2024-03-02T01:34:33;99745.31;;;9.43;88.54
58072;BME280;60383;46.626;18.866;2024-03-02T01:36:58;99746.31;;;9.34;89.14
58072;BME280;60383;46.626;18.866;2024-03-02T01:39:23;99745.31;;;9.43;89.51
58072;BME280;60383;46.626;18.866;2024-03-02T01:41:49;99751.31;;;9.47;89.23
58072;BME280;60383;46.626;18.866;2024-03-02T01:44:14;99755.91;;;9.46;88.64
58072;BME280;60383;46.626;18.866;2024-03-02T01:46:40;99756.75;;;9.38;88.55
58072;BME280;60383;46.626;18.866;2024-03-02T01:49:06;99752.94;;;9.23;89.23
58072;BME280;60383;46.626;18.866;2024-03-02T01:51:31;99750.84;;;9.17;89.71
58072;BME280;60383;46.626;18.866;2024-03-02T01:53:57;99741.22;;;8.96;91.28
58072;BME280;60383;46.626;18.866;2024-03-02T01:56:22;99744.69;;;9.15;89.80
58072;BME280;60383;46.626;18.866;2024-03-02T01:58:48;99742.34;;;9.28;88.89
58072;BME280;60383;46.626;18.866;2024-03-02T02:01:13;99748.56;;;9.47;88.10
58072;BME280;60383;46.626;18.866;2024-03-02T02:03:39;99742.13;;;9.13;89.30
58072;BME280;60383;46.626;18.866;2024-03-02T02:06:06;99738.91;;;9.18;89.74
58072;BME280;60383;46.626;18.866;2024-03-02T02:08:32;99733.81;;;9.23;89.50
58072;BME280;60383;46.626;18.866;2024-03-02T02:10:58;99744.88;;;9.13;90.09
58072;BME280;60383;46.626;18.866;2024-03-02T02:13:23;99741.09;;;9.06;91.06
58072;BME280;60383;46.626;18.866;2024-03-02T02:15:49;99749.88;;;8.91;92.18
58072;BME280;60383;46.626;18.866;2024-03-02T02:18:15;99746.06;;;9.10;92.09
58072;BME280;60383;46.626;18.866;2024-03-02T02:20:41;99750.28;;;9.05;92.71
58072;BME280;60383;46.626;18.866;2024-03-02T02:23:06;99744.81;;;9.05;92.61
58072;BME280;60383;46.626;18.866;2024-03-02T02:25:34;99737.28;;;8.99;93.19
58072;BME280;60383;46.626;18.866;2024-03-02T02:28:00;99741.44;;;9.11;92.88
58072;BME280;60383;46.626;18.866;2024-03-02T02:30:27;99737.28;;;8.99;93.32
58072;BME280;60383;46.626;18.866;2024-03-02T02:32:53;99736.31;;;9.08;92.18
58072;BME280;60383;46.626;18.866;2024-03-02T02:35:19;99731.53;;;9.02;91.84
58072;BME280;60383;46.626;18.866;2024-03-02T02:37:46;99726.06;;;9.02;91.94
58072;BME280;60383;46.626;18.866;2024-03-02T02:40:12;99719.19;;;8.98;91.79
58072;BME280;60383;46.626;18.866;2024-03-02T02:42:38;99733.94;;;9.13;91.23
58072;BME280;60383;46.626;18.866;2024-03-02T02:45:05;99728.81;;;9.18;91.14
58072;BME280;60383;46.626;18.866;2024-03-02T02:47:30;99728.75;;;8.93;92.34
58072;BME280;60383;46.626;18.866;2024-03-02T02:49:56;99728.00;;;8.83;93.75
58072;BME280;60383;46.626;18.866;2024-03-02T02:52:22;99722.56;;;8.91;93.94
58072;BME280;60383;46.626;18.866;2024-03-02T02:54:47;99721.88;;;8.89;93.61
58072;BME280;60383;46.626;18.866;2024-03-02T02:57:12;99720.16;;;8.80;93.86
58072;BME280;60383;46.626;18.866;2024-03-02T02:59:38;99723.28;;;8.93;93.78
58072;BME280;60383;46.626;18.866;2024-03-02T03:02:03;99729.06;;;8.90;93.72
58072;BME280;60383;46.626;18.866;2024-03-02T03:04:29;99719.28;;;8.79;94.32
58072;BME280;60383;46.626;18.866;2024-03-02T03:06:54;99725.28;;;8.83;94.28
58072;BME280;60383;46.626;18.866;2024-03-02T03:09:20;99727.72;;;8.94;93.95
58072;BME280;60383;46.626;18.866;2024-03-02T03:11:46;99727.38;;;8.98;93.86
58072;BME280;60383;46.626;18.866;2024-03-02T03:14:11;99723.44;;;8.92;93.04
58072;BME280;60383;46.626;18.866;2024-03-02T03:16:36;99723.06;;;8.87;93.52
58072;BME280;60383;46.626;18.866;2024-03-02T03:19:02;99731.06;;;8.80;93.93
58072;BME280;60383;46.626;18.866;2024-03-02T03:21:27;99729.84;;;8.74;94.23
58072;BME280;60383;46.626;18.866;2024-03-02T03:23:53;99728.88;;;8.84;94.33
58072;BME280;60383;46.626;18.866;2024-03-02T03:26:18;99729.72;;;8.84;94.66
58072;BME280;60383;46.626;18.866;2024-03-02T03:28:44;99730.06;;;8.81;94.15
58072;BME280;60383;46.626;18.866;2024-03-02T03:31:09;99729.72;;;8.84;94.26
58072;BME280;60383;46.626;18.866;2024-03-02T03:33:35;99737.56;;;8.79;94.77
58072;BME280;60383;46.626;18.866;2024-03-02T03:36:01;99727.06;;;8.66;95.65
58072;BME280;60383;46.626;18.866;2024-03-02T03:38:28;99725.75;;;8.70;95.92
58072;BME280;60383;46.626;18.866;2024-03-02T03:40:54;99731.66;;;8.92;95.42
58072;BME280;60383;46.626;18.866;2024-03-02T03:43:20;99739.22;;;8.72;96.26
58072;BME280;60383;46.626;18.866;2024-03-02T03:45:45;99723.31;;;8.67;96.54
58072;BME280;60383;46.626;18.866;2024-03-02T03:48:11;99719.56;;;8.68;96.78
58072;BME280;60383;46.626;18.866;2024-03-02T03:50:36;99719.00;;;8.91;95.43
58072;BME280;60383;46.626;18.866;2024-03-02T03:53:03;99723.56;;;8.82;95.84
58072;BME280;60383;46.626;18.866;2024-03-02T03:55:28;99726.81;;;8.86;96.05
58072;BME280;60383;46.626;18.866;2024-03-02T03:57:54;99716.75;;;8.86;96.08
58072;BME280;60383;46.626;18.866;2024-03-02T04:00:19;99720.16;;;8.80;95.79
58072;BME280;60383;46.626;18.866;2024-03-02T04:02:45;99716.06;;;8.84;96.09
58072;BME280;60383;46.626;18.866;2024-03-02T04:05:10;99713.00;;;8.87;95.64
58072;BME280;60383;46.626;18.866;2024-03-02T04:07:37;99705.13;;;8.84;96.30
58072;BME280;60383;46.626;18.866;2024-03-02T04:10:10;99714.09;;;9.03;94.95
58072;BME280;60383;46.626;18.866;2024-03-02T04:12:36;99710.31;;;8.95;95.58
58072;BME280;60383;46.626;18.866;2024-03-02T04:15:03;99710.81;;;8.91;95.44
58072;BME280;60383;46.626;18.866;2024-03-02T04:17:29;99716.94;;;8.85;95.80
58072;BME280;60383;46.626;18.866;2024-03-02T04:19:54;99719.41;;;8.70;96.99
58072;BME280;60383;46.626;18.866;2024-03-02T04:22:20;99725.50;;;8.63;97.48
58072;BME280;60383;46.626;18.866;2024-03-02T04:24:45;99720.41;;;8.69;97.72
58072;BME280;60383;46.626;18.866;2024-03-02T04:27:11;99722.00;;;8.71;96.97
58072;BME280;60383;46.626;18.866;2024-03-02T04:29:36;99719.44;;;8.78;97.02
58072;BME280;60383;46.626;18.866;2024-03-02T04:32:02;99728.25;;;8.98;96.09
58072;BME280;60383;46.626;18.866;2024-03-02T04:34:27;99724.59;;;8.81;97.01
58072;BME280;60383;46.626;18.866;2024-03-02T04:36:52;99723.25;;;8.85;97.37
58072;BME280;60383;46.626;18.866;2024-03-02T04:39:18;99729.34;;;8.79;98.08
58072;BME280;60383;46.626;18.866;2024-03-02T04:41:43;99728.25;;;8.63;98.25
58072;BME280;60383;46.626;18.866;2024-03-02T04:44:09;99736.47;;;8.72;98.59
58072;BME280;60383;46.626;18.866;2024-03-02T04:46:34;99749.00;;;8.56;99.56
58072;BME280;60383;46.626;18.866;2024-03-02T04:48:59;99731.78;;;8.56;100.00
58072;BME280;60383;46.626;18.866;2024-03-02T04:51:25;99741.59;;;8.67;99.86
58072;BME280;60383;46.626;18.866;2024-03-02T04:53:50;99741.72;;;8.65;99.62
58072;BME280;60383;46.626;18.866;2024-03-02T04:56:16;99745.84;;;8.95;98.70
58072;BME280;60383;46.626;18.866;2024-03-02T04:58:56;99745.13;;;8.93;98.81
58072;BME280;60383;46.626;18.866;2024-03-02T05:01:22;99742.56;;;8.92;98.84
58072;BME280;60383;46.626;18.866;2024-03-02T05:03:47;99748.16;;;8.90;98.42
58072;BME280;60383;46.626;18.866;2024-03-02T05:06:12;99752.72;;;9.08;97.52
58072;BME280;60383;46.626;18.866;2024-03-02T05:08:38;99753.56;;;9.08;97.49
58072;BME280;60383;46.626;18.866;2024-03-02T05:11:03;99753.91;;;9.05;98.25
58072;BME280;60383;46.626;18.866;2024-03-02T05:13:47;99758.09;;;8.91;98.59
58072;BME280;60383;46.626;18.866;2024-03-02T05:16:13;99760.09;;;8.89;99.06
58072;BME280;60383;46.626;18.866;2024-03-02T05:18:38;99754.13;;;8.86;99.09
58072;BME280;60383;46.626;18.866;2024-03-02T05:21:04;99772.75;;;8.90;99.66
58072;BME280;60383;46.626;18.866;2024-03-02T05:23:29;99778.13;;;8.74;100.00
58072;BME280;60383;46.626;18.866;2024-03-02T05:25:56;99777.38;;;8.63;100.00
58072;BME280;60383;46.626;18.866;2024-03-02T05:28:21;99785.50;;;8.55;100.00
58072;BME280;60383;46.626;18.866;2024-03-02T05:30:47;99781.59;;;8.84;100.00
58072;BME280;60383;46.626;18.866;2024-03-02T05:33:12;99785.44;;;9.00;100.00
58072;BME280;60383;46.626;18.866;2024-03-02T05:35:38;99784.16;;;8.86;100.00
58072;BME280;60383;46.626;18.866;2024-03-02T05:38:03;99790.66;;;8.85;100.00
58072;BME280;60383;46.626;18.866;2024-03-02T05:40:29;99784.44;;;8.48;100.00
58072;BME280;60383;46.626;18.866;2024-03-02T05:42:54;99787.75;;;8.60;100.00
58072;BME280;60383;46.626;18.866;2024-03-02T05:45:19;99785.25;;;8.67;100.00
58072;BME280;60383;46.626;18.866;2024-03-02T05:47:45;99790.72;;;8.67;100.00
58072;BME280;60383;46.626;18.866;2024-03-02T05:50:10;99796.00;;;8.68;100.00
58072;BME280;60383;46.626;18.866;2024-03-02T05:52:36;99785.94;;;8.69;100.00
58072;BME280;60383;46.626;18.866;2024-03-02T05:55:01;99797.38;;;8.64;100.00
58072;BME280;60383;46.626;18.866;2024-03-02T05:57:26;99797.91;;;8.68;100.00
58072;BME280;60383;46.626;18.866;2024-03-02T06:00:13;99796.50;;;8.63;100.00
58072;BME280;60383;46.626;18.866;2024-03-02T06:02:41;99797.94;;;8.76;100.00
58072;BME280;60383;46.626;18.866;2024-03-02T06:05:06;99803.06;;;8.79;100.00
58072;BME280;60383;46.626;18.866;2024-03-02T06:07:32;99804.38;;;8.67;100.00
58072;BME280;60383;46.626;18.866;2024-03-02T06:09:58;99808.06;;;8.57;100.00
58072;BME280;60383;46.626;18.866;2024-03-02T06:12:23;99798.84;;;8.58;100.00
58072;BME280;60383;46.626;18.866;2024-03-02T06:14:49;99802.81;;;8.64;100.00
58072;BME280;60383;46.626;18.866;2024-03-02T06:17:14;99808.41;;;8.62;100.00
58072;BME280;60383;46.626;18.866;2024-03-02T06:19:40;99813.19;;;8.60;100.00
58072;BME280;60383;46.626;18.866;2024-03-02T06:22:05;99806.13;;;8.50;100.00
58072;BME280;60383;46.626;18.866;2024-03-02T06:24:31;99812.94;;;8.72;100.00
58072;BME280;60383;46.626;18.866;2024-03-02T06:26:56;99813.88;;;8.62;100.00
58072;BME280;60383;46.626;18.866;2024-03-02T06:29:22;99818.88;;;8.67;100.00
58072;BME280;60383;46.626;18.866;2024-03-02T06:31:47;99817.59;;;8.53;100.00
58072;BME280;60383;46.626;18.866;2024-03-02T06:34:12;99811.53;;;8.68;100.00
58072;BME280;60383;46.626;18.866;2024-03-02T06:36:41;99818.31;;;8.45;100.00
58072;BME280;60383;46.626;18.866;2024-03-02T06:39:07;99815.72;;;8.80;100.00
58072;BME280;60383;46.626;18.866;2024-03-02T06:41:33;99821.94;;;8.64;100.00
58072;BME280;60383;46.626;18.866;2024-03-02T06:43:59;99823.75;;;8.82;100.00
58072;BME280;60383;46.626;18.866;2024-03-02T06:46:27;99827.06;;;8.93;100.00
58072;BME280;60383;46.626;18.866;2024-03-02T06:48:53;99826.59;;;8.98;100.00
58072;BME280;60383;46.626;18.866;2024-03-02T06:51:18;99821.84;;;9.08;100.00
58072;BME280;60383;46.626;18.866;2024-03-02T06:53:43;99828.44;;;8.98;100.00
58072;BME280;60383;46.626;18.866;2024-03-02T06:56:09;99828.72;;;8.86;100.00
58072;BME280;60383;46.626;18.866;2024-03-02T06:58:34;99824.88;;;8.97;100.00
58072;BME280;60383;46.626;18.866;2024-03-02T07:01:00;99830.22;;;9.07;100.00
58072;BME280;60383;46.626;18.866;2024-03-02T07:03:28;99834.13;;;9.04;100.00
58072;BME280;60383;46.626;18.866;2024-03-02T07:05:53;99832.28;;;8.87;100.00
58072;BME280;60383;46.626;18.866;2024-03-02T07:08:19;99833.78;;;9.07;100.00
58072;BME280;60383;46.626;18.866;2024-03-02T07:10:44;99835.78;;;8.71;100.00
58072;BME280;60383;46.626;18.866;2024-03-02T07:13:10;99840.16;;;8.63;100.00
58072;BME280;60383;46.626;18.866;2024-03-02T07:15:35;99833.75;;;8.73;100.00
58072;BME280;60383;46.626;18.866;2024-03-02T07:18:19;99831.13;;;8.89;100.00
58072;BME280;60383;46.626;18.866;2024-03-02T07:20:44;99839.16;;;8.91;100.00
58072;BME280;60383;46.626;18.866;2024-03-02T07:23:10;99841.59;;;8.76;100.00
58072;BME280;60383;46.626;18.866;2024-03-02T07:25:35;99842.84;;;9.08;100.00
58072;BME280;60383;46.626;18.866;2024-03-02T07:28:01;99840.44;;;9.05;100.00
58072;BME280;60383;46.626;18.866;2024-03-02T07:30:26;99839.81;;;8.85;100.00
58072;BME280;60383;46.626;18.866;2024-03-02T07:32:52;99844.28;;;8.94;100.00
58072;BME280;60383;46.626;18.866;2024-03-02T07:35:17;99840.06;;;9.00;100.00
58072;BME280;60383;46.626;18.866;2024-03-02T07:37:43;99843.03;;;8.80;100.00
58072;BME280;60383;46.626;18.866;2024-03-02T07:40:09;99844.75;;;8.81;100.00
58072;BME280;60383;46.626;18.866;2024-03-02T07:42:39;99844.97;;;8.70;100.00
58072;BME280;60383;46.626;18.866;2024-03-02T07:45:05;99844.97;;;8.70;100.00
58072;BME280;60383;46.626;18.866;2024-03-02T07:47:33;99845.53;;;9.00;100.00
58072;BME280;60383;46.626;18.866;2024-03-02T07:49:59;99851.03;;;8.82;100.00
58072;BME280;60383;46.626;18.866;2024-03-02T07:52:24;99853.78;;;8.82;100.00
58072;BME280;60383;46.626;18.866;2024-03-02T07:54:49;99858.22;;;8.83;100.00
58072;BME280;60383;46.626;18.866;2024-03-02T07:57:15;99862.03;;;8.90;100.00
58072;BME280;60383;46.626;18.866;2024-03-02T07:59:40;99852.09;;;8.62;100.00
58072;BME280;60383;46.626;18.866;2024-03-02T08:02:06;99863.72;;;8.65;100.00
58072;BME280;60383;46.626;18.866;2024-03-02T08:04:32;99861.78;;;8.57;100.00
58072;BME280;60383;46.626;18.866;2024-03-02T08:06:57;99865.81;;;8.71;100.00
58072;BME280;60383;46.626;18.866;2024-03-02T08:09:23;99866.72;;;8.79;100.00
58072;BME280;60383;46.626;18.866;2024-03-02T08:11:48;99856.53;;;8.63;100.00
58072;BME280;60383;46.626;18.866;2024-03-02T08:14:14;99864.72;;;8.63;100.00
58072;BME280;60383;46.626;18.866;2024-03-02T08:16:40;99860.72;;;8.76;100.00
58072;BME280;60383;46.626;18.866;2024-03-02T08:19:05;99862.81;;;8.82;100.00
58072;BME280;60383;46.626;18.866;2024-03-02T08:21:31;99862.72;;;8.66;100.00
58072;BME280;60383;46.626;18.866;2024-03-02T08:23:57;99868.44;;;8.54;100.00
58072;BME280;60383;46.626;18.866;2024-03-02T08:26:23;99868.25;;;8.56;100.00
58072;BME280;60383;46.626;18.866;2024-03-02T08:28:49;99867.00;;;8.68;100.00
58072;BME280;60383;46.626;18.866;2024-03-02T08:31:14;99861.13;;;8.81;100.00
58072;BME280;60383;46.626;18.866;2024-03-02T08:33:40;99871.72;;;8.84;100.00
58072;BME280;60383;46.626;18.866;2024-03-02T08:36:06;99875.03;;;8.96;100.00
58072;BME280;60383;46.626;18.866;2024-03-02T08:38:31;99867.94;;;8.41;100.00
58072;BME280;60383;46.626;18.866;2024-03-02T08:40:57;99870.69;;;8.85;100.00
58072;BME280;60383;46.626;18.866;2024-03-02T08:43:23;99873.22;;;8.78;100.00
58072;BME280;60383;46.626;18.866;2024-03-02T08:45:48;99862.53;;;8.67;100.00
58072;BME280;60383;46.626;18.866;2024-03-02T08:48:14;99866.25;;;8.84;100.00
58072;BME280;60383;46.626;18.866;2024-03-02T08:50:40;99862.19;;;8.88;100.00
58072;BME280;60383;46.626;18.866;2024-03-02T08:53:05;99857.03;;;9.11;100.00
58072;BME280;60383;46.626;18.866;2024-03-02T08:55:31;99862.34;;;8.87;100.00
58072;BME280;60383;46.626;18.866;2024-03-02T08:57:56;99859.38;;;9.06;100.00
58072;BME280;60383;46.626;18.866;2024-03-02T09:00:23;99867.09;;;9.11;100.00
58072;BME280;60383;46.626;18.866;2024-03-02T09:02:49;99863.28;;;8.95;100.00
58072;BME280;60383;46.626;18.866;2024-03-02T09:05:14;99859.34;;;8.98;100.00
58072;BME280;60383;46.626;18.866;2024-03-02T09:07:40;99860.97;;;9.09;100.00
58072;BME280;60383;46.626;18.866;2024-03-02T09:10:06;99860.84;;;8.92;100.00
58072;BME280;60383;46.626;18.866;2024-03-02T09:12:32;99860.38;;;8.97;100.00
58072;BME280;60383;46.626;18.866;2024-03-02T09:14:58;99866.03;;;9.04;100.00
58072;BME280;60383;46.626;18.866;2024-03-02T09:17:24;99866.56;;;9.07;100.00
58072;BME280;60383;46.626;18.866;2024-03-02T09:19:49;99868.97;;;8.84;100.00
58072;BME280;60383;46.626;18.866;2024-03-02T09:22:18;99870.31;;;8.80;100.00
58072;BME280;60383;46.626;18.866;2024-03-02T09:24:44;99872.72;;;8.83;100.00
58072;BME280;60383;46.626;18.866;2024-03-02T09:27:09;99871.50;;;9.04;100.00
58072;BME280;60383;46.626;18.866;2024-03-02T09:29:34;99864.97;;;8.97;100.00
58072;BME280;60383;46.626;18.866;2024-03-02T09:32:00;99874.19;;;8.95;100.00
58072;BME280;60383;46.626;18.866;2024-03-02T09:34:25;99874.72;;;8.99;100.00
58072;BME280;60383;46.626;18.866;2024-03-02T09:36:51;99869.56;;;8.96;100.00
58072;BME280;60383;46.626;18.866;2024-03-02T09:39:17;99873.25;;;9.13;100.00
58072;BME280;60383;46.626;18.866;2024-03-02T09:41:43;99883.44;;;9.29;100.00
58072;BME280;60383;46.626;18.866;2024-03-02T09:44:09;99875.28;;;9.11;100.00
58072;BME280;60383;46.626;18.866;2024-03-02T09:46:35;99882.03;;;9.25;100.00
58072;BME280;60383;46.626;18.866;2024-03-02T09:49:02;99883.13;;;9.40;100.00
58072;BME280;60383;46.626;18.866;2024-03-02T09:51:27;99875.88;;;9.23;100.00
58072;BME280;60383;46.626;18.866;2024-03-02T09:53:54;99882.47;;;9.38;100.00
58072;BME280;60383;46.626;18.866;2024-03-02T09:56:21;99882.63;;;9.37;100.00
58072;BME280;60383;46.626;18.866;2024-03-02T09:58:47;99879.25;;;9.51;100.00
58072;BME280;60383;46.626;18.866;2024-03-02T10:01:12;99881.97;;;9.43;100.00
58072;BME280;60383;46.626;18.866;2024-03-02T10:03:38;99882.00;;;9.51;100.00
58072;BME280;60383;46.626;18.866;2024-03-02T10:06:25;99875.06;;;9.65;100.00
58072;BME280;60383;46.626;18.866;2024-03-02T10:08:51;99879.84;;;9.29;100.00
58072;BME280;60383;46.626;18.866;2024-03-02T10:11:34;99876.69;;;9.50;100.00
58072;BME280;60383;46.626;18.866;2024-03-02T10:14:11;99879.78;;;9.47;100.00
58072;BME280;60383;46.626;18.866;2024-03-02T10:16:38;99876.25;;;9.28;100.00
58072;BME280;60383;46.626;18.866;2024-03-02T10:19:22;99877.25;;;9.27;100.00
58072;BME280;60383;46.626;18.866;2024-03-02T10:21:52;99879.16;;;9.26;100.00
58072;BME280;60383;46.626;18.866;2024-03-02T10:24:18;99873.66;;;9.53;100.00
58072;BME280;60383;46.626;18.866;2024-03-02T10:26:44;99874.66;;;9.52;100.00
58072;BME280;60383;46.626;18.866;2024-03-02T10:29:10;99878.50;;;9.33;100.00
58072;BME280;60383;46.626;18.866;2024-03-02T10:31:37;99880.34;;;9.24;100.00
58072;BME280;60383;46.626;18.866;2024-03-02T10:34:03;99876.69;;;9.50;100.00
58072;BME280;60383;46.626;18.866;2024-03-02T10:36:29;99878.19;;;9.44;100.00
58072;BME280;60383;46.626;18.866;2024-03-02T10:38:56;99879.78;;;9.55;100.00
58072;BME280;60383;46.626;18.866;2024-03-02T10:41:26;99867.34;;;9.61;100.00
58072;BME280;60383;46.626;18.866;2024-03-02T10:43:56;99876.78;;;9.32;100.00
58072;BME280;60383;46.626;18.866;2024-03-02T10:46:29;99873.91;;;9.33;100.00
58072;BME280;60383;46.626;18.866;2024-03-02T10:48:55;99876.91;;;9.22;100.00
58072;BME280;60383;46.626;18.866;2024-03-02T10:51:27;99880.03;;;9.35;100.00
58072;BME280;60383;46.626;18.866;2024-03-02T10:53:54;99882.00;;;9.51;100.00
58072;BME280;60383;46.626;18.866;2024-03-02T10:56:31;99877.66;;;9.40;100.00
58072;BME280;60383;46.626;18.866;2024-03-02T11:01:33;99875.97;;;9.39;100.00
58072;BME280;60383;46.626;18.866;2024-03-02T11:04:02;99879.25;;;9.51;100.00
58072;BME280;60383;46.626;18.866;2024-03-02T11:06:30;99888.66;;;9.49;100.00
58072;BME280;60383;46.626;18.866;2024-03-02T11:09:00;99887.53;;;9.68;100.00
58072;BME280;60383;46.626;18.866;2024-03-02T11:11:32;99888.88;;;9.55;100.00
58072;BME280;60383;46.626;18.866;2024-03-02T11:14:01;99885.19;;;9.38;100.00
58072;BME280;60383;46.626;18.866;2024-03-02T11:16:37;99887.22;;;9.10;100.00
58072;BME280;60383;46.626;18.866;2024-03-02T11:19:11;99885.94;;;9.57;100.00
58072;BME280;60383;46.626;18.866;2024-03-02T11:21:38;99892.47;;;9.64;100.00
58072;BME280;60383;46.626;18.866;2024-03-02T11:26:48;99879.06;;;9.45;100.00
58072;BME280;60383;46.626;18.866;2024-03-02T11:32:00;99885.78;;;9.50;100.00
58072;BME280;60383;46.626;18.866;2024-03-02T11:34:36;99883.88;;;9.51;100.00
58072;BME280;60383;46.626;18.866;2024-03-02T11:37:05;99885.13;;;9.56;100.00
58072;BME280;60383;46.626;18.866;2024-03-02T11:39:31;99891.59;;;9.55;100.00
58072;BME280;60383;46.626;18.866;2024-03-02T11:41:58;99887.31;;;9.61;100.00
58072;BME280;60383;46.626;18.866;2024-03-02T11:44:27;99886.53;;;9.69;100.00
58072;BME280;60383;46.626;18.866;2024-03-02T11:46:59;99883.72;;;9.52;100.00
58072;BME280;60383;46.626;18.866;2024-03-02T11:52:06;99882.16;;;9.50;100.00
58072;BME280;60383;46.626;18.866;2024-03-02T11:54:33;99881.63;;;9.81;100.00
58072;BME280;60383;46.626;18.866;2024-03-02T11:57:02;99885.25;;;9.55;100.00
58072;BME280;60383;46.626;18.866;2024-03-02T11:59:29;99892.53;;;9.38;100.00
58072;BME280;60383;46.626;18.866;2024-03-02T12:01:55;99881.28;;;9.41;100.00
58072;BME280;60383;46.626;18.866;2024-03-02T12:04:22;99880.00;;;9.62;100.00
58072;BME280;60383;46.626;18.866;2024-03-02T12:06:54;99884.25;;;9.56;100.00
58072;BME280;60383;46.626;18.866;2024-03-02T12:09:21;99887.09;;;9.46;100.00
58072;BME280;60383;46.626;18.866;2024-03-02T12:11:46;99875.94;;;9.74;100.00
58072;BME280;60383;46.626;18.866;2024-03-02T12:14:12;99873.38;;;9.72;100.00
58072;BME280;60383;46.626;18.866;2024-03-02T12:16:44;99879.94;;;9.88;100.00
58072;BME280;60383;46.626;18.866;2024-03-02T12:19:09;99885.53;;;9.78;100.00
58072;BME280;60383;46.626;18.866;2024-03-02T12:21:35;99885.53;;;9.78;100.00
58072;BME280;60383;46.626;18.866;2024-03-02T12:24:01;99883.19;;;9.91;100.00
58072;BME280;60383;46.626;18.866;2024-03-02T12:26:28;99888.28;;;9.78;100.00
58072;BME280;60383;46.626;18.866;2024-03-02T12:28:53;99886.31;;;10.05;100.00
58072;BME280;60383;46.626;18.866;2024-03-02T12:31:19;99879.81;;;10.22;100.00
58072;BME280;60383;46.626;18.866;2024-03-02T12:33:46;99878.84;;;10.57;100.00
58072;BME280;60383;46.626;18.866;2024-03-02T12:36:13;99870.13;;;10.53;100.00
58072;BME280;60383;46.626;18.866;2024-03-02T12:38:43;99881.09;;;10.69;100.00
58072;BME280;60383;46.626;18.866;2024-03-02T12:41:09;99872.50;;;10.73;100.00
58072;BME280;60383;46.626;18.866;2024-03-02T12:43:34;99877.47;;;10.94;100.00
58072;BME280;60383;46.626;18.866;2024-03-02T12:46:00;99873.22;;;10.91;100.00
58072;BME280;60383;46.626;18.866;2024-03-02T12:48:25;99870.28;;;11.01;100.00
58072;BME280;60383;46.626;18.866;2024-03-02T12:50:51;99871.97;;;11.02;100.00
58072;BME280;60383;46.626;18.866;2024-03-02T12:53:17;99875.25;;;10.81;100.00
58072;BME280;60383;46.626;18.866;2024-03-02T12:55:43;99874.88;;;11.00;100.00
58072;BME280;60383;46.626;18.866;2024-03-02T12:58:17;99869.72;;;11.14;100.00
58072;BME280;60383;46.626;18.866;2024-03-02T13:00:42;99871.22;;;11.25;100.00
58072;BME280;60383;46.626;18.866;2024-03-02T13:03:08;99872.78;;;11.19;100.00
58072;BME280;60383;46.626;18.866;2024-03-02T13:05:33;99875.50;;;11.35;100.00
58072;BME280;60383;46.626;18.866;2024-03-02T13:07:59;99868.84;;;11.22;100.00